sensor_id;sensor_type;location;lat;lon;timestamp;P1;durP1;ratioP1;P2;durP2;ratioP2
6037;SDS011;3047;42.600;23.470;2022-08-25T00:01:33;16.92;;;8.00;;
6037;SDS011;3047;42.600;23.470;2022-08-25T00:04:02;23.10;;;7.50;;
6037;SDS011;3047;42.600;23.470;2022-08-25T00:06:33;14.45;;;6.88;;
6037;SDS011;3047;42.600;23.470;2022-08-25T00:08:59;16.08;;;7.25;;
6037;SDS011;3047;42.600;23.470;2022-08-25T00:11:27;16.17;;;7.85;;
6037;SDS011;3047;42.600;23.470;2022-08-25T00:13:59;18.70;;;7.28;;
6037;SDS011;3047;42.600;23.470;2022-08-25T00:16:28;13.82;;;6.57;;
6037;SDS011;3047;42.600;23.470;2022-08-25T00:18:57;23.15;;;7.53;;
6037;SDS011;3047;42.600;23.470;2022-08-25T00:21:25;11.40;;;6.63;;
6037;SDS011;3047;42.600;23.470;2022-08-25T00:23:55;17.15;;;7.00;;
6037;SDS011;3047;42.600;23.470;2022-08-25T00:26:22;19.48;;;6.18;;
6037;SDS011;3047;42.600;23.470;2022-08-25T00:28:50;20.25;;;6.93;;
6037;SDS011;3047;42.600;23.470;2022-08-25T00:31:19;16.75;;;6.22;;
6037;SDS011;3047;42.600;23.470;2022-08-25T00:33:48;16.00;;;7.10;;
6037;SDS011;3047;42.600;23.470;2022-08-25T00:36:17;21.30;;;7.43;;
6037;SDS011;3047;42.600;23.470;2022-08-25T00:38:45;18.25;;;7.05;;
6037;SDS011;3047;42.600;23.470;2022-08-25T00:41:15;21.15;;;6.57;;
6037;SDS011;3047;42.600;23.470;2022-08-25T00:43:45;16.33;;;6.57;;
6037;SDS011;3047;42.600;23.470;2022-08-25T00:46:17;17.88;;;6.30;;
6037;SDS011;3047;42.600;23.470;2022-08-25T00:48:48;17.67;;;6.68;;
6037;SDS011;3047;42.600;23.470;2022-08-25T00:51:18;20.25;;;6.18;;
6037;SDS011;3047;42.600;23.470;2022-08-25T00:53:50;16.13;;;7.28;;
6037;SDS011;3047;42.600;23.470;2022-08-25T00:56:17;16.65;;;6.43;;
6037;SDS011;3047;42.600;23.470;2022-08-25T00:58:44;24.48;;;6.85;;
6037;SDS011;3047;42.600;23.470;2022-08-25T01:01:11;16.42;;;7.70;;
6037;SDS011;3047;42.600;23.470;2022-08-25T01:03:39;16.48;;;5.85;;
6037;SDS011;3047;42.600;23.470;2022-08-25T01:06:06;19.75;;;6.97;;
6037;SDS011;3047;42.600;23.470;2022-08-25T01:08:35;19.75;;;7.28;;
6037;SDS011;3047;42.600;23.470;2022-08-25T01:11:04;13.20;;;7.38;;
6037;SDS011;3047;42.600;23.470;2022-08-25T01:13:33;24.55;;;7.32;;
6037;SDS011;3047;42.600;23.470;2022-08-25T01:16:03;15.77;;;7.97;;
6037;SDS011;3047;42.600;23.470;2022-08-25T01:18:42;14.45;;;6.88;;
6037;SDS011;3047;42.600;23.470;2022-08-25T01:21:15;13.93;;;6.97;;
6037;SDS011;3047;42.600;23.470;2022-08-25T01:23:43;14.85;;;7.47;;
6037;SDS011;3047;42.600;23.470;2022-08-25T01:26:12;16.88;;;7.07;;
6037;SDS011;3047;42.600;23.470;2022-08-25T01:28:41;21.63;;;8.32;;
6037;SDS011;3047;42.600;23.470;2022-08-25T01:31:24;18.95;;;7.85;;
6037;SDS011;3047;42.600;23.470;2022-08-25T01:33:51;17.85;;;8.70;;
6037;SDS011;3047;42.600;23.470;2022-08-25T01:36:19;18.42;;;9.88;;
6037;SDS011;3047;42.600;23.470;2022-08-25T01:38:46;16.05;;;8.75;;
6037;SDS011;3047;42.600;23.470;2022-08-25T01:41:15;14.45;;;9.90;;
6037;SDS011;3047;42.600;23.470;2022-08-25T01:43:42;21.13;;;8.27;;
6037;SDS011;3047;42.600;23.470;2022-08-25T01:46:09;16.52;;;9.10;;
6037;SDS011;3047;42.600;23.470;2022-08-25T01:48:36;15.90;;;9.43;;
6037;SDS011;3047;42.600;23.470;2022-08-25T01:51:03;15.50;;;8.60;;
6037;SDS011;3047;42.600;23.470;2022-08-25T01:53:31;15.23;;;8.88;;
6037;SDS011;3047;42.600;23.470;2022-08-25T01:55:58;15.45;;;9.40;;
6037;SDS011;3047;42.600;23.470;2022-08-25T01:58:27;18.15;;;9.35;;
6037;SDS011;3047;42.600;23.470;2022-08-25T02:00:56;17.98;;;9.60;;
6037;SDS011;3047;42.600;23.470;2022-08-25T02:03:25;19.23;;;9.27;;
6037;SDS011;3047;42.600;23.470;2022-08-25T02:05:53;20.25;;;9.80;;
6037;SDS011;3047;42.600;23.470;2022-08-25T02:08:21;16.85;;;9.15;;
6037;SDS011;3047;42.600;23.470;2022-08-25T02:10:50;18.08;;;9.57;;
6037;SDS011;3047;42.600;23.470;2022-08-25T02:13:18;17.42;;;9.75;;
6037;SDS011;3047;42.600;23.470;2022-08-25T02:15:46;21.30;;;10.77;;
6037;SDS011;3047;42.600;23.470;2022-08-25T02:18:17;17.80;;;9.85;;
6037;SDS011;3047;42.600;23.470;2022-08-25T02:20:44;19.27;;;10.50;;
6037;SDS011;3047;42.600;23.470;2022-08-25T02:23:11;20.70;;;10.25;;
6037;SDS011;3047;42.600;23.470;2022-08-25T02:25:39;16.30;;;10.50;;
6037;SDS011;3047;42.600;23.470;2022-08-25T02:28:08;23.35;;;10.10;;
6037;SDS011;3047;42.600;23.470;2022-08-25T02:30:35;12.13;;;9.05;;
6037;SDS011;3047;42.600;23.470;2022-08-25T02:33:04;18.45;;;10.05;;
6037;SDS011;3047;42.600;23.470;2022-08-25T02:35:31;13.57;;;10.38;;
6037;SDS011;3047;42.600;23.470;2022-08-25T02:37:58;25.20;;;10.27;;
6037;SDS011;3047;42.600;23.470;2022-08-25T02:40:24;22.13;;;10.25;;
6037;SDS011;3047;42.600;23.470;2022-08-25T02:42:51;22.80;;;10.60;;
6037;SDS011;3047;42.600;23.470;2022-08-25T02:45:20;24.40;;;10.07;;
6037;SDS011;3047;42.600;23.470;2022-08-25T02:47:48;21.58;;;10.48;;
6037;SDS011;3047;42.600;23.470;2022-08-25T02:50:14;25.85;;;10.48;;
6037;SDS011;3047;42.600;23.470;2022-08-25T02:52:41;21.13;;;10.85;;
6037;SDS011;3047;42.600;23.470;2022-08-25T02:55:09;17.92;;;10.45;;
6037;SDS011;3047;42.600;23.470;2022-08-25T02:57:38;17.25;;;9.55;;
6037;SDS011;3047;42.600;23.470;2022-08-25T03:00:06;21.33;;;9.77;;
6037;SDS011;3047;42.600;23.470;2022-08-25T03:02:36;20.58;;;10.23;;
6037;SDS011;3047;42.600;23.470;2022-08-25T03:05:03;17.38;;;10.10;;
6037;SDS011;3047;42.600;23.470;2022-08-25T03:07:32;16.60;;;9.98;;
6037;SDS011;3047;42.600;23.470;2022-08-25T03:09:59;21.83;;;9.65;;
6037;SDS011;3047;42.600;23.470;2022-08-25T03:12:30;23.48;;;9.63;;
6037;SDS011;3047;42.600;23.470;2022-08-25T03:14:57;20.83;;;9.75;;
6037;SDS011;3047;42.600;23.470;2022-08-25T03:17:24;15.55;;;9.90;;
6037;SDS011;3047;42.600;23.470;2022-08-25T03:19:52;13.68;;;8.95;;
6037;SDS011;3047;42.600;23.470;2022-08-25T03:22:19;22.92;;;10.07;;
6037;SDS011;3047;42.600;23.470;2022-08-25T03:24:46;20.77;;;10.23;;
6037;SDS011;3047;42.600;23.470;2022-08-25T03:27:13;17.83;;;10.40;;
6037;SDS011;3047;42.600;23.470;2022-08-25T03:29:39;19.15;;;9.02;;
6037;SDS011;3047;42.600;23.470;2022-08-25T03:32:07;17.80;;;9.40;;
6037;SDS011;3047;42.600;23.470;2022-08-25T03:34:34;14.60;;;9.27;;
6037;SDS011;3047;42.600;23.470;2022-08-25T03:37:03;13.50;;;8.73;;
6037;SDS011;3047;42.600;23.470;2022-08-25T03:39:32;16.83;;;9.05;;
6037;SDS011;3047;42.600;23.470;2022-08-25T03:42:00;20.08;;;9.45;;
6037;SDS011;3047;42.600;23.470;2022-08-25T03:44:28;19.00;;;9.98;;
6037;SDS011;3047;42.600;23.470;2022-08-25T03:46:55;15.48;;;8.65;;
6037;SDS011;3047;42.600;23.470;2022-08-25T03:49:22;17.42;;;9.25;;
6037;SDS011;3047;42.600;23.470;2022-08-25T03:51:50;17.95;;;9.15;;
6037;SDS011;3047;42.600;23.470;2022-08-25T03:54:20;16.00;;;9.13;;
6037;SDS011;3047;42.600;23.470;2022-08-25T03:56:49;16.92;;;9.48;;
6037;SDS011;3047;42.600;23.470;2022-08-25T03:59:16;18.55;;;9.25;;
6037;SDS011;3047;42.600;23.470;2022-08-25T04:01:43;20.17;;;8.90;;
6037;SDS011;3047;42.600;23.470;2022-08-25T04:04:12;16.33;;;8.55;;
6037;SDS011;3047;42.600;23.470;2022-08-25T04:06:41;30.45;;;10.30;;
6037;SDS011;3047;42.600;23.470;2022-08-25T04:09:09;14.43;;;9.60;;
6037;SDS011;3047;42.600;23.470;2022-08-25T04:11:38;20.63;;;9.68;;
6037;SDS011;3047;42.600;23.470;2022-08-25T04:14:05;20.92;;;10.07;;
6037;SDS011;3047;42.600;23.470;2022-08-25T04:16:33;18.48;;;8.90;;
6037;SDS011;3047;42.600;23.470;2022-08-25T04:19:01;15.65;;;9.30;;
6037;SDS011;3047;42.600;23.470;2022-08-25T04:21:32;18.40;;;8.43;;
6037;SDS011;3047;42.600;23.470;2022-08-25T04:23:59;13.55;;;8.55;;
6037;SDS011;3047;42.600;23.470;2022-08-25T04:26:27;18.08;;;8.82;;
6037;SDS011;3047;42.600;23.470;2022-08-25T04:28:57;20.83;;;8.80;;
6037;SDS011;3047;42.600;23.470;2022-08-25T04:31:25;21.00;;;8.20;;
6037;SDS011;3047;42.600;23.470;2022-08-25T04:33:52;13.25;;;8.25;;
6037;SDS011;3047;42.600;23.470;2022-08-25T04:36:19;15.35;;;8.52;;
6037;SDS011;3047;42.600;23.470;2022-08-25T04:38:46;18.70;;;8.05;;
6037;SDS011;3047;42.600;23.470;2022-08-25T04:41:15;24.80;;;8.30;;
6037;SDS011;3047;42.600;23.470;2022-08-25T04:43:43;17.23;;;7.47;;
6037;SDS011;3047;42.600;23.470;2022-08-25T04:46:13;23.35;;;8.23;;
6037;SDS011;3047;42.600;23.470;2022-08-25T04:48:41;20.88;;;8.68;;
6037;SDS011;3047;42.600;23.470;2022-08-25T04:51:09;23.77;;;9.30;;
6037;SDS011;3047;42.600;23.470;2022-08-25T04:53:37;19.63;;;8.38;;
6037;SDS011;3047;42.600;23.470;2022-08-25T04:56:05;14.95;;;8.50;;
6037;SDS011;3047;42.600;23.470;2022-08-25T04:58:33;14.90;;;8.82;;
6037;SDS011;3047;42.600;23.470;2022-08-25T05:01:00;18.42;;;9.02;;
6037;SDS011;3047;42.600;23.470;2022-08-25T05:03:29;17.17;;;7.93;;
6037;SDS011;3047;42.600;23.470;2022-08-25T05:05:56;19.35;;;8.63;;
6037;SDS011;3047;42.600;23.470;2022-08-25T05:08:23;17.17;;;7.72;;
6037;SDS011;3047;42.600;23.470;2022-08-25T05:10:50;17.02;;;7.78;;
6037;SDS011;3047;42.600;23.470;2022-08-25T05:13:18;16.00;;;8.32;;
6037;SDS011;3047;42.600;23.470;2022-08-25T05:15:50;17.35;;;7.63;;
6037;SDS011;3047;42.600;23.470;2022-08-25T05:18:19;18.35;;;8.07;;
6037;SDS011;3047;42.600;23.470;2022-08-25T05:20:48;14.77;;;7.90;;
6037;SDS011;3047;42.600;23.470;2022-08-25T05:23:16;16.25;;;7.40;;
6037;SDS011;3047;42.600;23.470;2022-08-25T05:25:42;18.42;;;9.20;;
6037;SDS011;3047;42.600;23.470;2022-08-25T05:28:09;21.00;;;9.80;;
6037;SDS011;3047;42.600;23.470;2022-08-25T05:30:36;14.95;;;7.15;;
6037;SDS011;3047;42.600;23.470;2022-08-25T05:33:04;16.10;;;8.48;;
6037;SDS011;3047;42.600;23.470;2022-08-25T05:35:31;19.55;;;8.35;;
6037;SDS011;3047;42.600;23.470;2022-08-25T05:37:59;14.75;;;7.18;;
6037;SDS011;3047;42.600;23.470;2022-08-25T05:40:26;21.75;;;7.75;;
6037;SDS011;3047;42.600;23.470;2022-08-25T05:42:53;18.98;;;8.00;;
6037;SDS011;3047;42.600;23.470;2022-08-25T05:45:20;14.75;;;8.15;;
6037;SDS011;3047;42.600;23.470;2022-08-25T05:47:47;15.85;;;7.85;;
6037;SDS011;3047;42.600;23.470;2022-08-25T05:50:14;19.05;;;7.47;;
6037;SDS011;3047;42.600;23.470;2022-08-25T05:52:41;18.48;;;8.30;;
6037;SDS011;3047;42.600;23.470;2022-08-25T05:55:10;15.32;;;7.97;;
6037;SDS011;3047;42.600;23.470;2022-08-25T05:57:37;19.15;;;8.50;;
6037;SDS011;3047;42.600;23.470;2022-08-25T06:00:04;15.10;;;8.25;;
6037;SDS011;3047;42.600;23.470;2022-08-25T06:02:33;18.50;;;9.57;;
6037;SDS011;3047;42.600;23.470;2022-08-25T06:05:08;20.30;;;11.48;;
6037;SDS011;3047;42.600;23.470;2022-08-25T06:07:36;14.88;;;8.57;;
6037;SDS011;3047;42.600;23.470;2022-08-25T06:10:04;20.92;;;8.88;;
6037;SDS011;3047;42.600;23.470;2022-08-25T06:12:37;18.48;;;9.65;;
6037;SDS011;3047;42.600;23.470;2022-08-25T06:15:06;18.88;;;10.85;;
6037;SDS011;3047;42.600;23.470;2022-08-25T06:17:33;22.15;;;12.43;;
6037;SDS011;3047;42.600;23.470;2022-08-25T06:20:05;18.20;;;9.65;;
6037;SDS011;3047;42.600;23.470;2022-08-25T06:22:33;15.18;;;9.55;;
6037;SDS011;3047;42.600;23.470;2022-08-25T06:25:01;20.73;;;9.88;;
6037;SDS011;3047;42.600;23.470;2022-08-25T06:27:28;24.05;;;12.25;;
6037;SDS011;3047;42.600;23.470;2022-08-25T06:29:56;11.75;;;8.75;;
6037;SDS011;3047;42.600;23.470;2022-08-25T06:32:23;20.45;;;8.82;;
6037;SDS011;3047;42.600;23.470;2022-08-25T06:34:50;20.55;;;9.43;;
6037;SDS011;3047;42.600;23.470;2022-08-25T06:37:16;15.02;;;8.48;;
6037;SDS011;3047;42.600;23.470;2022-08-25T06:39:43;16.27;;;9.07;;
6037;SDS011;3047;42.600;23.470;2022-08-25T06:42:10;15.70;;;7.88;;
6037;SDS011;3047;42.600;23.470;2022-08-25T06:44:36;19.33;;;8.75;;
6037;SDS011;3047;42.600;23.470;2022-08-25T06:47:05;23.23;;;7.70;;
6037;SDS011;3047;42.600;23.470;2022-08-25T06:49:32;18.17;;;8.38;;
6037;SDS011;3047;42.600;23.470;2022-08-25T06:51:58;19.48;;;9.18;;
6037;SDS011;3047;42.600;23.470;2022-08-25T06:54:25;25.40;;;8.43;;
6037;SDS011;3047;42.600;23.470;2022-08-25T06:56:52;18.20;;;7.90;;
6037;SDS011;3047;42.600;23.470;2022-08-25T06:59:19;17.88;;;7.80;;
6037;SDS011;3047;42.600;23.470;2022-08-25T07:01:45;16.70;;;8.32;;
6037;SDS011;3047;42.600;23.470;2022-08-25T07:04:13;17.85;;;7.20;;
6037;SDS011;3047;42.600;23.470;2022-08-25T07:06:40;14.23;;;7.20;;
6037;SDS011;3047;42.600;23.470;2022-08-25T07:09:07;14.77;;;6.75;;
6037;SDS011;3047;42.600;23.470;2022-08-25T07:11:36;16.13;;;7.07;;
6037;SDS011;3047;42.600;23.470;2022-08-25T07:14:03;15.88;;;6.80;;
6037;SDS011;3047;42.600;23.470;2022-08-25T07:16:32;16.65;;;6.28;;
6037;SDS011;3047;42.600;23.470;2022-08-25T07:19:00;22.27;;;7.00;;
6037;SDS011;3047;42.600;23.470;2022-08-25T07:21:29;16.13;;;6.88;;
6037;SDS011;3047;42.600;23.470;2022-08-25T07:23:57;17.83;;;7.00;;
6037;SDS011;3047;42.600;23.470;2022-08-25T07:26:26;14.35;;;7.85;;
6037;SDS011;3047;42.600;23.470;2022-08-25T07:28:55;17.55;;;7.35;;
6037;SDS011;3047;42.600;23.470;2022-08-25T07:31:23;13.77;;;6.70;;
6037;SDS011;3047;42.600;23.470;2022-08-25T07:33:50;21.27;;;8.60;;
6037;SDS011;3047;42.600;23.470;2022-08-25T07:36:35;14.63;;;7.30;;
6037;SDS011;3047;42.600;23.470;2022-08-25T07:39:02;14.70;;;6.88;;
6037;SDS011;3047;42.600;23.470;2022-08-25T07:41:30;20.08;;;7.97;;
6037;SDS011;3047;42.600;23.470;2022-08-25T07:43:58;20.48;;;7.35;;
6037;SDS011;3047;42.600;23.470;2022-08-25T07:46:24;14.43;;;6.80;;
6037;SDS011;3047;42.600;23.470;2022-08-25T07:48:51;15.93;;;7.32;;
6037;SDS011;3047;42.600;23.470;2022-08-25T07:51:18;11.95;;;7.57;;
6037;SDS011;3047;42.600;23.470;2022-08-25T07:53:46;17.48;;;7.03;;
6037;SDS011;3047;42.600;23.470;2022-08-25T07:56:14;24.52;;;8.43;;
6037;SDS011;3047;42.600;23.470;2022-08-25T07:58:41;21.70;;;6.30;;
6037;SDS011;3047;42.600;23.470;2022-08-25T08:01:12;21.17;;;6.75;;
6037;SDS011;3047;42.600;23.470;2022-08-25T08:03:40;21.58;;;6.80;;
6037;SDS011;3047;42.600;23.470;2022-08-25T08:06:07;24.67;;;6.18;;
6037;SDS011;3047;42.600;23.470;2022-08-25T08:08:35;23.80;;;6.38;;
6037;SDS011;3047;42.600;23.470;2022-08-25T08:11:04;19.42;;;6.30;;
6037;SDS011;3047;42.600;23.470;2022-08-25T08:13:31;24.63;;;6.60;;
6037;SDS011;3047;42.600;23.470;2022-08-25T08:15:58;30.27;;;5.65;;
6037;SDS011;3047;42.600;23.470;2022-08-25T08:18:25;21.92;;;6.32;;
6037;SDS011;3047;42.600;23.470;2022-08-25T08:20:52;20.83;;;7.50;;
6037;SDS011;3047;42.600;23.470;2022-08-25T08:23:18;21.42;;;6.57;;
6037;SDS011;3047;42.600;23.470;2022-08-25T08:25:51;30.92;;;7.57;;
6037;SDS011;3047;42.600;23.470;2022-08-25T08:28:19;26.65;;;6.65;;
6037;SDS011;3047;42.600;23.470;2022-08-25T08:30:46;20.85;;;6.50;;
6037;SDS011;3047;42.600;23.470;2022-08-25T08:33:13;21.42;;;6.35;;
6037;SDS011;3047;42.600;23.470;2022-08-25T08:35:40;27.65;;;6.57;;
6037;SDS011;3047;42.600;23.470;2022-08-25T08:38:07;31.27;;;5.95;;
6037;SDS011;3047;42.600;23.470;2022-08-25T08:40:40;20.27;;;5.88;;
6037;SDS011;3047;42.600;23.470;2022-08-25T08:43:34;19.27;;;5.80;;
6037;SDS011;3047;42.600;23.470;2022-08-25T08:46:01;22.52;;;6.60;;
6037;SDS011;3047;42.600;23.470;2022-08-25T08:48:37;26.88;;;6.32;;
6037;SDS011;3047;42.600;23.470;2022-08-25T08:51:12;22.88;;;5.70;;
6037;SDS011;3047;42.600;23.470;2022-08-25T08:53:47;21.58;;;5.72;;
6037;SDS011;3047;42.600;23.470;2022-08-25T08:56:18;18.30;;;5.38;;
6037;SDS011;3047;42.600;23.470;2022-08-25T08:58:50;26.75;;;5.80;;
6037;SDS011;3047;42.600;23.470;2022-08-25T09:01:23;24.10;;;6.10;;
6037;SDS011;3047;42.600;23.470;2022-08-25T09:03:53;19.45;;;5.43;;
6037;SDS011;3047;42.600;23.470;2022-08-25T09:06:26;22.10;;;5.53;;
6037;SDS011;3047;42.600;23.470;2022-08-25T09:08:58;21.67;;;5.85;;
6037;SDS011;3047;42.600;23.470;2022-08-25T09:11:31;18.30;;;5.22;;
6037;SDS011;3047;42.600;23.470;2022-08-25T09:14:16;22.02;;;6.70;;
6037;SDS011;3047;42.600;23.470;2022-08-25T09:16:59;19.83;;;6.55;;
6037;SDS011;3047;42.600;23.470;2022-08-25T09:19:40;24.10;;;6.65;;
6037;SDS011;3047;42.600;23.470;2022-08-25T09:22:22;19.45;;;6.13;;
6037;SDS011;3047;42.600;23.470;2022-08-25T09:25:02;24.58;;;6.03;;
6037;SDS011;3047;42.600;23.470;2022-08-25T09:27:36;16.88;;;5.45;;
6037;SDS011;3047;42.600;23.470;2022-08-25T09:30:11;24.50;;;5.15;;
6037;SDS011;3047;42.600;23.470;2022-08-25T09:32:41;21.33;;;4.55;;
6037;SDS011;3047;42.600;23.470;2022-08-25T09:35:11;18.25;;;4.70;;
6037;SDS011;3047;42.600;23.470;2022-08-25T09:37:42;18.98;;;4.60;;
6037;SDS011;3047;42.600;23.470;2022-08-25T09:40:20;29.67;;;4.55;;
6037;SDS011;3047;42.600;23.470;2022-08-25T09:42:48;27.35;;;4.60;;
6037;SDS011;3047;42.600;23.470;2022-08-25T09:45:29;15.85;;;5.03;;
6037;SDS011;3047;42.600;23.470;2022-08-25T09:47:58;21.77;;;4.93;;
6037;SDS011;3047;42.600;23.470;2022-08-25T09:50:29;21.05;;;4.65;;
6037;SDS011;3047;42.600;23.470;2022-08-25T09:53:09;18.58;;;4.85;;
6037;SDS011;3047;42.600;23.470;2022-08-25T09:55:40;29.50;;;5.30;;
6037;SDS011;3047;42.600;23.470;2022-08-25T09:58:17;18.45;;;4.40;;
6037;SDS011;3047;42.600;23.470;2022-08-25T10:00:58;24.55;;;5.45;;
6037;SDS011;3047;42.600;23.470;2022-08-25T10:03:28;22.20;;;5.85;;
6037;SDS011;3047;42.600;23.470;2022-08-25T10:06:00;21.35;;;6.25;;
6037;SDS011;3047;42.600;23.470;2022-08-25T10:08:32;28.00;;;5.18;;
6037;SDS011;3047;42.600;23.470;2022-08-25T10:11:02;24.10;;;5.28;;
6037;SDS011;3047;42.600;23.470;2022-08-25T10:13:36;22.15;;;4.85;;
6037;SDS011;3047;42.600;23.470;2022-08-25T10:16:09;21.92;;;5.75;;
6037;SDS011;3047;42.600;23.470;2022-08-25T10:18:40;25.00;;;5.90;;
6037;SDS011;3047;42.600;23.470;2022-08-25T10:21:08;17.88;;;4.78;;
6037;SDS011;3047;42.600;23.470;2022-08-25T10:23:39;17.67;;;4.53;;
6037;SDS011;3047;42.600;23.470;2022-08-25T10:26:10;23.67;;;5.22;;
6037;SDS011;3047;42.600;23.470;2022-08-25T10:28:47;21.02;;;5.32;;
6037;SDS011;3047;42.600;23.470;2022-08-25T10:31:30;29.60;;;4.75;;
6037;SDS011;3047;42.600;23.470;2022-08-25T10:34:05;20.30;;;4.88;;
6037;SDS011;3047;42.600;23.470;2022-08-25T10:36:45;23.17;;;4.05;;
6037;SDS011;3047;42.600;23.470;2022-08-25T10:39:23;16.77;;;4.70;;
6037;SDS011;3047;42.600;23.470;2022-08-25T10:41:57;23.08;;;5.32;;
6037;SDS011;3047;42.600;23.470;2022-08-25T10:44:33;16.52;;;4.65;;
6037;SDS011;3047;42.600;23.470;2022-08-25T10:50:17;18.45;;;5.20;;
6037;SDS011;3047;42.600;23.470;2022-08-25T10:52:54;14.32;;;4.63;;
6037;SDS011;3047;42.600;23.470;2022-08-25T10:55:31;17.90;;;4.45;;
6037;SDS011;3047;42.600;23.470;2022-08-25T10:58:05;27.67;;;5.57;;
6037;SDS011;3047;42.600;23.470;2022-08-25T11:00:42;24.20;;;4.38;;
6037;SDS011;3047;42.600;23.470;2022-08-25T11:03:19;16.73;;;4.10;;
6037;SDS011;3047;42.600;23.470;2022-08-25T11:06:00;21.33;;;4.63;;
6037;SDS011;3047;42.600;23.470;2022-08-25T11:08:31;16.33;;;3.58;;
6037;SDS011;3047;42.600;23.470;2022-08-25T11:11:04;19.75;;;4.47;;
6037;SDS011;3047;42.600;23.470;2022-08-25T11:13:37;19.92;;;4.40;;
6037;SDS011;3047;42.600;23.470;2022-08-25T11:16:09;14.55;;;3.90;;
6037;SDS011;3047;42.600;23.470;2022-08-25T11:18:43;18.15;;;4.93;;
6037;SDS011;3047;42.600;23.470;2022-08-25T11:21:15;19.58;;;4.68;;
6037;SDS011;3047;42.600;23.470;2022-08-25T11:23:51;15.73;;;4.00;;
6037;SDS011;3047;42.600;23.470;2022-08-25T11:26:21;20.75;;;4.20;;
6037;SDS011;3047;42.600;23.470;2022-08-25T11:28:56;24.42;;;4.28;;
6037;SDS011;3047;42.600;23.470;2022-08-25T11:31:28;21.60;;;5.03;;
6037;SDS011;3047;42.600;23.470;2022-08-25T11:33:57;23.38;;;5.65;;
6037;SDS011;3047;42.600;23.470;2022-08-25T11:36:26;27.65;;;4.57;;
6037;SDS011;3047;42.600;23.470;2022-08-25T11:38:59;23.80;;;4.20;;
6037;SDS011;3047;42.600;23.470;2022-08-25T11:41:40;17.00;;;4.40;;
6037;SDS011;3047;42.600;23.470;2022-08-25T11:44:31;21.75;;;3.92;;
6037;SDS011;3047;42.600;23.470;2022-08-25T11:47:15;14.18;;;3.85;;
6037;SDS011;3047;42.600;23.470;2022-08-25T11:49:53;12.18;;;4.03;;
6037;SDS011;3047;42.600;23.470;2022-08-25T11:52:39;14.52;;;4.57;;
6037;SDS011;3047;42.600;23.470;2022-08-25T11:55:11;19.20;;;4.68;;
6037;SDS011;3047;42.600;23.470;2022-08-25T11:57:40;25.00;;;4.20;;
6037;SDS011;3047;42.600;23.470;2022-08-25T12:00:09;18.35;;;5.05;;
6037;SDS011;3047;42.600;23.470;2022-08-25T12:02:40;25.27;;;4.22;;
6037;SDS011;3047;42.600;23.470;2022-08-25T12:05:11;23.00;;;4.05;;
6037;SDS011;3047;42.600;23.470;2022-08-25T12:08:27;20.38;;;4.97;;
6037;SDS011;3047;42.600;23.470;2022-08-25T12:11:15;18.10;;;5.15;;
6037;SDS011;3047;42.600;23.470;2022-08-25T12:14:13;24.20;;;5.32;;
6037;SDS011;3047;42.600;23.470;2022-08-25T12:16:42;15.50;;;4.35;;
6037;SDS011;3047;42.600;23.470;2022-08-25T12:19:29;17.92;;;4.22;;
6037;SDS011;3047;42.600;23.470;2022-08-25T12:25:18;18.90;;;4.75;;
6037;SDS011;3047;42.600;23.470;2022-08-25T12:27:57;16.92;;;3.85;;
6037;SDS011;3047;42.600;23.470;2022-08-25T12:30:36;13.73;;;4.18;;
6037;SDS011;3047;42.600;23.470;2022-08-25T12:33:10;14.40;;;3.97;;
6037;SDS011;3047;42.600;23.470;2022-08-25T12:35:50;14.98;;;4.15;;
6037;SDS011;3047;42.600;23.470;2022-08-25T12:38:27;21.67;;;4.07;;
6037;SDS011;3047;42.600;23.470;2022-08-25T12:40:59;17.92;;;5.05;;
6037;SDS011;3047;42.600;23.470;2022-08-25T12:43:30;11.82;;;4.25;;
6037;SDS011;3047;42.600;23.470;2022-08-25T12:49:09;19.13;;;4.30;;
6037;SDS011;3047;42.600;23.470;2022-08-25T12:51:52;8.48;;;4.18;;
6037;SDS011;3047;42.600;23.470;2022-08-25T12:54:24;17.30;;;3.67;;
6037;SDS011;3047;42.600;23.470;2022-08-25T12:57:04;14.27;;;4.53;;
6037;SDS011;3047;42.600;23.470;2022-08-25T12:59:48;11.30;;;4.38;;
6037;SDS011;3047;42.600;23.470;2022-08-25T13:02:30;22.63;;;4.43;;
6037;SDS011;3047;42.600;23.470;2022-08-25T13:05:19;14.05;;;4.28;;
6037;SDS011;3047;42.600;23.470;2022-08-25T13:08:16;14.10;;;3.97;;
6037;SDS011;3047;42.600;23.470;2022-08-25T13:10:54;14.40;;;4.25;;
6037;SDS011;3047;42.600;23.470;2022-08-25T13:13:30;11.40;;;3.67;;
6037;SDS011;3047;42.600;23.470;2022-08-25T13:16:05;15.07;;;4.68;;
6037;SDS011;3047;42.600;23.470;2022-08-25T13:18:35;14.73;;;3.90;;
6037;SDS011;3047;42.600;23.470;2022-08-25T13:21:04;17.13;;;4.40;;
6037;SDS011;3047;42.600;23.470;2022-08-25T13:23:40;9.77;;;4.07;;
6037;SDS011;3047;42.600;23.470;2022-08-25T13:26:12;7.25;;;3.63;;
6037;SDS011;3047;42.600;23.470;2022-08-25T13:28:40;10.98;;;4.20;;
6037;SDS011;3047;42.600;23.470;2022-08-25T13:31:13;9.55;;;4.28;;
6037;SDS011;3047;42.600;23.470;2022-08-25T13:33:48;15.38;;;4.50;;
6037;SDS011;3047;42.600;23.470;2022-08-25T13:36:16;14.48;;;4.55;;
6037;SDS011;3047;42.600;23.470;2022-08-25T13:39:09;16.30;;;4.90;;
6037;SDS011;3047;42.600;23.470;2022-08-25T13:41:39;15.75;;;4.55;;
6037;SDS011;3047;42.600;23.470;2022-08-25T13:44:10;14.88;;;4.97;;
6037;SDS011;3047;42.600;23.470;2022-08-25T13:46:38;12.02;;;4.03;;
6037;SDS011;3047;42.600;23.470;2022-08-25T13:49:05;15.93;;;4.55;;
6037;SDS011;3047;42.600;23.470;2022-08-25T13:51:33;20.92;;;4.18;;
6037;SDS011;3047;42.600;23.470;2022-08-25T13:54:01;14.02;;;4.03;;
6037;SDS011;3047;42.600;23.470;2022-08-25T13:56:31;13.20;;;4.13;;
6037;SDS011;3047;42.600;23.470;2022-08-25T13:59:01;21.38;;;5.18;;
6037;SDS011;3047;42.600;23.470;2022-08-25T14:01:30;13.40;;;4.53;;
6037;SDS011;3047;42.600;23.470;2022-08-25T14:07:06;13.95;;;3.58;;
6037;SDS011;3047;42.600;23.470;2022-08-25T14:09:38;12.40;;;4.18;;
6037;SDS011;3047;42.600;23.470;2022-08-25T14:12:24;30.75;;;4.75;;
6037;SDS011;3047;42.600;23.470;2022-08-25T14:14:59;13.98;;;4.15;;
6037;SDS011;3047;42.600;23.470;2022-08-25T14:17:29;23.27;;;4.25;;
6037;SDS011;3047;42.600;23.470;2022-08-25T14:19:56;12.45;;;3.97;;
6037;SDS011;3047;42.600;23.470;2022-08-25T14:22:24;26.30;;;4.22;;
6037;SDS011;3047;42.600;23.470;2022-08-25T14:24:52;17.48;;;4.40;;
6037;SDS011;3047;42.600;23.470;2022-08-25T14:27:19;11.95;;;3.72;;
6037;SDS011;3047;42.600;23.470;2022-08-25T14:29:46;13.18;;;4.03;;
6037;SDS011;3047;42.600;23.470;2022-08-25T14:32:15;19.58;;;4.07;;
6037;SDS011;3047;42.600;23.470;2022-08-25T14:34:42;18.70;;;4.22;;
6037;SDS011;3047;42.600;23.470;2022-08-25T14:37:11;21.58;;;3.85;;
6037;SDS011;3047;42.600;23.470;2022-08-25T14:39:40;17.10;;;3.85;;
6037;SDS011;3047;42.600;23.470;2022-08-25T14:42:07;12.88;;;3.92;;
6037;SDS011;3047;42.600;23.470;2022-08-25T14:44:34;16.42;;;3.72;;
6037;SDS011;3047;42.600;23.470;2022-08-25T14:47:01;19.33;;;3.90;;
6037;SDS011;3047;42.600;23.470;2022-08-25T14:49:31;20.10;;;3.78;;
6037;SDS011;3047;42.600;23.470;2022-08-25T14:52:03;14.90;;;4.45;;
6037;SDS011;3047;42.600;23.470;2022-08-25T14:54:34;14.23;;;3.75;;
6037;SDS011;3047;42.600;23.470;2022-08-25T14:57:00;15.45;;;3.92;;
6037;SDS011;3047;42.600;23.470;2022-08-25T14:59:27;19.67;;;4.45;;
6037;SDS011;3047;42.600;23.470;2022-08-25T15:01:55;11.52;;;3.95;;
6037;SDS011;3047;42.600;23.470;2022-08-25T15:04:22;20.58;;;4.95;;
6037;SDS011;3047;42.600;23.470;2022-08-25T15:06:54;15.85;;;4.10;;
6037;SDS011;3047;42.600;23.470;2022-08-25T15:09:22;19.08;;;4.72;;
6037;SDS011;3047;42.600;23.470;2022-08-25T15:11:49;13.40;;;3.85;;
6037;SDS011;3047;42.600;23.470;2022-08-25T15:14:18;23.10;;;3.92;;
6037;SDS011;3047;42.600;23.470;2022-08-25T15:16:48;22.33;;;4.28;;
6037;SDS011;3047;42.600;23.470;2022-08-25T15:19:17;18.35;;;4.15;;
6037;SDS011;3047;42.600;23.470;2022-08-25T15:21:45;19.92;;;5.10;;